Time;durP1;ratioP1;P1;durP2;ratioP2;P2;SDS_P1;SDS_P2;PMS_P1;PMS_P2;Temp;Humidity;BMP_temperature;BMP_pressure;BME280_temperature;BME280_humidity;BME280_pressure;Samples;Min_cycle;Max_cycle;Signal;HPM_P1;HPM_P2
2021/08/28 00:00:33;;;;;;;26.95;6.82;;;;;;;12.45;96.38;102264.97;5013528;28;20172;-74
2021/08/28 00:02:58;;;;;;;27.50;6.43;;;;;;;12.42;96.20;102274.09;5013474;28;20466;-75
2021/08/28 00:05:24;;;;;;;29.50;6.68;;;;;;;12.41;96.32;102258.19;5013883;28;20509;-75
2021/08/28 00:07:49;;;;;;;34.83;7.05;;;;;;;12.39;96.40;102258.31;5013539;28;20394;-75
2021/08/28 00:10:15;;;;;;;32.67;6.88;;;;;;;12.34;96.26;102263.13;5014238;28;20113;-74
2021/08/28 00:12:40;;;;;;;32.35;6.57;;;;;;;12.28;96.32;102256.41;5014121;28;20034;-74
2021/08/28 00:15:09;;;;;;;22.75;6.25;;;;;;;12.21;96.41;102251.66;5013439;28;20117;-74
2021/08/28 00:17:35;;;;;;;33.22;6.93;;;;;;;12.18;96.22;102258.09;5014148;28;20114;-75
2021/08/28 00:20:05;;;;;;;29.60;7.47;;;;;;;12.17;96.42;102245.72;5013325;28;20116;-74
2021/08/28 00:22:30;;;;;;;33.35;7.72;;;;;;;12.16;96.72;102249.34;5013543;28;20096;-74
2021/08/28 00:24:56;;;;;;;33.15;7.93;;;;;;;12.15;96.58;102245.84;5012873;28;20504;-75
2021/08/28 00:27:21;;;;;;;27.25;7.50;;;;;;;12.13;97.03;102246.91;5013542;28;20029;-75
2021/08/28 00:29:47;;;;;;;19.70;7.22;;;;;;;12.13;96.80;102253.09;5013778;28;20064;-74
2021/08/28 00:32:13;;;;;;;31.02;6.90;;;;;;;12.09;96.97;102258.78;5013104;28;20113;-74
2021/08/28 00:34:38;;;;;;;29.77;7.50;;;;;;;12.08;97.03;102247.25;5012506;28;20037;-74
2021/08/28 00:37:03;;;;;;;36.25;8.52;;;;;;;12.15;97.34;102247.63;5013027;28;20385;-74
2021/08/28 00:39:29;;;;;;;36.85;9.30;;;;;;;12.20;97.29;102250.84;5013781;28;20129;-74
2021/08/28 00:41:54;;;;;;;44.05;9.43;;;;;;;12.30;97.37;102256.31;5012710;28;20030;-74
2021/08/28 00:44:19;;;;;;;36.00;8.60;;;;;;;12.41;97.71;102250.19;5013575;28;20518;-74
2021/08/28 00:46:46;;;;;;;37.50;9.43;;;;;;;12.50;98.12;102247.66;5013528;28;20100;-74
2021/08/28 00:49:11;;;;;;;35.90;8.82;;;;;;;12.59;98.37;102242.59;5012508;28;20495;-74
2021/08/28 00:51:38;;;;;;;38.22;7.68;;;;;;;12.62;98.37;102245.84;5013399;28;20037;-74
2021/08/28 00:54:04;;;;;;;24.70;6.80;;;;;;;12.62;98.43;102243.19;5012660;28;20038;-75
2021/08/28 00:56:29;;;;;;;34.53;7.18;;;;;;;12.59;98.03;102240.75;5013195;28;20056;-74
2021/08/28 00:58:55;;;;;;;28.55;6.53;;;;;;;12.56;98.20;102241.00;5012597;28;20076;-75
2021/08/28 01:01:25;;;;;;;39.05;7.82;;;;;;;12.59;98.00;102248.75;5013019;28;20046;-74
2021/08/28 01:03:57;;;;;;;32.92;7.55;;;;;;;12.66;98.17;102251.81;5013006;28;20034;-74
2021/08/28 01:06:27;;;;;;;29.70;7.38;;;;;;;12.78;98.00;102252.66;5013076;28;20026;-73
2021/08/28 01:09:13;;;;;;;34.40;7.80;;;;;;;12.88;98.31;102250.97;5013459;28;20029;-74
2021/08/28 01:11:47;;;;;;;34.38;7.97;;;;;;;12.95;98.08;102246.88;5012767;28;20112;-74
2021/08/28 01:14:15;;;;;;;43.97;8.40;;;;;;;13.04;98.33;102247.97;5012525;28;20026;-73
2021/08/28 01:16:47;;;;;;;28.13;6.35;;;;;;;13.11;98.08;102251.03;5012781;28;20467;-74
2021/08/28 01:19:32;;;;;;;26.67;6.50;;;;;;;13.17;97.79;102247.88;5012276;28;20061;-74
2021/08/28 01:22:00;;;;;;;33.58;6.50;;;;;;;13.19;97.61;102251.25;5012574;28;20028;-74
2021/08/28 01:24:26;;;;;;;25.17;6.30;;;;;;;13.22;97.72;102251.00;5012693;28;20041;-73
2021/08/28 01:27:03;;;;;;;24.10;6.28;;;;;;;13.29;97.32;102249.56;5012673;28;20062;-74
2021/08/28 01:29:35;;;;;;;28.35;5.55;;;;;;;13.34;97.14;102249.22;5012544;28;20037;-73
2021/08/28 01:32:02;;;;;;;26.90;5.85;;;;;;;13.39;96.36;102253.22;5012245;28;20080;-74
2021/08/28 01:34:30;;;;;;;29.42;5.35;;;;;;;13.45;96.13;102257.22;5012882;28;20034;-73
2021/08/28 01:36:56;;;;;;;25.95;5.43;;;;;;;13.47;96.06;102249.94;5013144;28;20034;-74
2021/08/28 01:39:23;;;;;;;26.17;5.10;;;;;;;13.50;95.26;102246.16;5012238;28;20088;-72
2021/08/28 01:41:51;;;;;;;21.63;5.65;;;;;;;13.55;95.11;102249.31;5012544;28;20482;-73
2021/08/28 01:44:17;;;;;;;30.20;6.25;;;;;;;13.60;95.06;102248.94;5012071;28;20026;-73
2021/08/28 01:46:43;;;;;;;24.25;5.47;;;;;;;13.64;94.59;102242.38;5012501;28;20026;-73
2021/08/28 01:49:10;;;;;;;25.67;5.47;;;;;;;13.66;94.58;102245.75;5011975;28;20120;-74
2021/08/28 01:51:38;;;;;;;21.25;5.05;;;;;;;13.66;94.43;102241.28;5012623;28;20030;-73
2021/08/28 01:54:03;;;;;;;21.17;5.45;;;;;;;13.64;94.43;102240.53;5012337;28;20470;-74
2021/08/28 01:56:30;;;;;;;21.70;5.32;;;;;;;13.63;94.56;102252.22;5012147;28;20045;-73
2021/08/28 01:58:57;;;;;;;16.30;4.78;;;;;;;13.62;94.79;102249.66;5012691;28;20120;-73
2021/08/28 02:01:23;;;;;;;23.20;5.30;;;;;;;13.61;95.16;102250.63;5011919;28;20038;-74
2021/08/28 02:03:48;;;;;;;21.27;5.15;;;;;;;13.60;95.11;102251.59;5012549;28;20509;-74
2021/08/28 02:06:23;;;;;;;23.77;5.10;;;;;;;13.63;95.73;102246.88;5011585;28;20089;-74
2021/08/28 02:09:00;;;;;;;26.95;5.00;;;;;;;13.66;95.70;102257.31;5012698;28;20034;-73
2021/08/28 02:11:35;;;;;;;19.75;5.35;;;;;;;13.70;95.56;102247.19;5011752;28;20033;-74
2021/08/28 02:14:20;;;;;;;23.17;5.18;;;;;;;13.74;95.28;102257.53;5012646;28;20118;-73
2021/08/28 02:16:46;;;;;;;19.30;5.45;;;;;;;13.75;95.30;102263.75;5012203;28;20521;-73
2021/08/28 02:19:20;;;;;;;26.30;5.18;;;;;;;13.77;94.95;102264.47;5011845;28;20064;-73
2021/08/28 02:21:52;;;;;;;21.40;4.82;;;;;;;13.78;94.67;102259.94;5012598;28;20033;-73
2021/08/28 02:24:26;;;;;;;24.83;4.82;;;;;;;13.79;94.46;102261.66;5015627;28;20042;-73
2021/08/28 02:27:19;;;;;;;23.30;5.20;;;;;;;13.74;93.54;102254.84;5016193;28;20076;-73
2021/08/28 02:29:50;;;;;;;25.33;5.95;;;;;;;13.70;93.25;102253.44;5016044;28;20080;-72
2021/08/28 02:32:16;;;;;;;26.58;5.60;;;;;;;13.66;93.02;102253.78;5015130;28;20522;-72
2021/08/28 02:34:43;;;;;;;29.08;5.93;;;;;;;13.61;93.21;102261.34;5015996;28;20398;-72
2021/08/28 02:37:10;;;;;;;21.08;4.82;;;;;;;13.53;92.79;102260.13;5015348;28;20471;-71
2021/08/28 02:39:38;;;;;;;19.38;4.82;;;;;;;13.48;93.14;102256.13;5016051;28;20038;-73
2021/08/28 02:42:04;;;;;;;14.20;4.45;;;;;;;13.43;92.96;102251.13;5015846;28;20033;-72
2021/08/28 02:44:31;;;;;;;19.13;5.35;;;;;;;13.38;93.53;102254.19;5015203;28;20382;-72
2021/08/28 02:46:58;;;;;;;19.90;5.10;;;;;;;13.31;93.36;102255.63;5015523;28;20467;-73
2021/08/28 02:49:25;;;;;;;22.35;5.05;;;;;;;13.28;93.81;102257.69;5015028;28;20067;-72
2021/08/28 02:51:51;;;;;;;21.70;5.40;;;;;;;13.25;93.67;102250.75;5015386;28;20117;-73
2021/08/28 02:54:19;;;;;;;25.90;5.28;;;;;;;13.19;93.70;102259.28;5015011;28;20490;-73
2021/08/28 02:56:48;;;;;;;21.23;5.85;;;;;;;13.16;93.89;102257.69;5015272;28;20052;-73
2021/08/28 02:59:18;;;;;;;18.88;4.63;;;;;;;13.13;94.26;102257.94;5015006;28;20041;-72
2021/08/28 03:01:44;;;;;;;21.25;5.20;;;;;;;13.09;94.21;102259.13;5016015;28;20022;-73
2021/08/28 03:04:11;;;;;;;23.67;5.18;;;;;;;13.07;93.83;102261.09;5015316;28;20120;-73
2021/08/28 03:06:37;;;;;;;14.85;4.57;;;;;;;13.10;93.87;102252.00;5015117;28;20037;-73
2021/08/28 03:09:03;;;;;;;21.75;4.28;;;;;;;13.08;93.62;102254.78;5015781;28;20030;-73
2021/08/28 03:11:29;;;;;;;15.55;4.63;;;;;;;13.05;93.61;102250.53;5014875;28;20466;-73
2021/08/28 03:13:54;;;;;;;13.02;4.60;;;;;;;13.03;93.45;102247.13;5015160;28;20030;-72
2021/08/28 03:16:25;;;;;;;15.48;4.00;;;;;;;13.02;93.99;102247.25;5014697;28;20113;-73
2021/08/28 03:18:56;;;;;;;15.40;4.60;;;;;;;13.02;94.04;102247.25;5015084;28;20034;-73
2021/08/28 03:21:23;;;;;;;19.48;5.05;;;;;;;13.09;94.16;102243.09;5014476;28;20029;-73
2021/08/28 03:23:49;;;;;;;18.48;4.85;;;;;;;13.18;94.06;102238.84;5014672;28;20034;-73
2021/08/28 03:26:19;;;;;;;16.38;4.13;;;;;;;13.24;93.25;102241.03;5014378;28;20451;-74
2021/08/28 03:28:46;;;;;;;12.68;4.45;;;;;;;13.29;93.23;102246.03;5015146;28;20025;-73
2021/08/28 03:31:13;;;;;;;15.65;4.68;;;;;;;13.33;92.47;102242.13;5015155;28;20056;-73
2021/08/28 03:33:40;;;;;;;23.08;5.15;;;;;;;13.29;92.30;102241.53;5013344;28;20125;-73
2021/08/28 03:36:06;;;;;;;19.27;4.97;;;;;;;13.25;92.68;102242.75;5014379;28;20062;-73
2021/08/28 03:38:34;;;;;;;18.00;4.82;;;;;;;13.16;93.04;102244.31;5014278;28;20057;-74
2021/08/28 03:41:00;;;;;;;12.00;4.78;;;;;;;13.10;93.42;102246.66;5014653;28;20030;-73
2021/08/28 03:43:26;;;;;;;16.42;4.93;;;;;;;13.05;93.77;102247.84;5013961;28;20466;-73
2021/08/28 03:45:51;;;;;;;17.58;5.25;;;;;;;13.00;93.40;102243.84;5014381;28;20112;-73
2021/08/28 03:48:20;;;;;;;24.27;5.60;;;;;;;12.99;94.06;102245.66;5014427;28;20112;-75
2021/08/28 03:50:47;;;;;;;20.92;5.63;;;;;;;12.99;94.74;102250.16;5014406;28;20144;-73
2021/08/28 03:53:12;;;;;;;30.85;5.85;;;;;;;12.97;94.69;102247.63;5014577;28;20045;-73
2021/08/28 03:55:38;;;;;;;23.70;6.63;;;;;;;13.01;94.92;102253.56;5013801;28;20468;-74
2021/08/28 03:58:03;;;;;;;27.60;6.90;;;;;;;13.07;95.56;102246.88;5014227;28;20441;-73
2021/08/28 04:00:28;;;;;;;27.05;6.05;;;;;;;13.18;95.42;102247.75;5013524;28;20445;-74
2021/08/28 04:02:54;;;;;;;24.05;5.90;;;;;;;13.31;95.84;102250.25;5013927;28;20069;-73
2021/08/28 04:05:19;;;;;;;19.02;5.30;;;;;;;13.44;94.93;102250.19;5013960;28;20062;-75
2021/08/28 04:07:45;;;;;;;23.25;5.43;;;;;;;13.52;94.50;102242.38;5014346;28;20061;-73
2021/08/28 04:10:11;;;;;;;23.77;5.47;;;;;;;13.56;93.81;102241.16;4996759;28;20091;-73
2021/08/28 04:12:36;;;;;;;23.73;5.63;;;;;;;13.56;93.48;102251.84;5013281;28;20109;-73
2021/08/28 04:15:03;;;;;;;24.27;5.95;;;;;;;13.57;93.63;102250.03;5014318;28;20066;-73
2021/08/28 04:17:28;;;;;;;20.45;5.40;;;;;;;13.53;93.26;102248.59;5013056;28;20132;-73
2021/08/28 04:19:54;;;;;;;22.30;5.80;;;;;;;13.52;93.64;102257.56;5013984;28;20113;-73
2021/08/28 04:22:19;;;;;;;22.60;5.40;;;;;;;13.50;93.33;102254.19;5013990;28;20037;-73
2021/08/28 04:24:44;;;;;;;19.23;5.35;;;;;;;13.46;93.78;102253.56;4979484;28;20034;-73
2021/08/28 04:27:10;;;;;;;27.38;6.18;;;;;;;13.43;93.18;102252.97;5013915;28;20038;-72
2021/08/28 04:29:35;;;;;;;27.50;5.95;;;;;;;13.39;93.44;102247.88;5012791;28;20034;-73
2021/08/28 04:32:00;;;;;;;22.38;6.20;;;;;;;13.36;93.85;102255.28;5013820;28;20026;-72
2021/08/28 04:34:26;;;;;;;20.52;5.95;;;;;;;13.33;94.02;102256.34;4995647;28;20418;-73
2021/08/28 04:36:51;;;;;;;37.97;6.13;;;;;;;13.28;93.66;102250.50;5013660;28;20041;-72
2021/08/28 04:39:16;;;;;;;27.98;5.95;;;;;;;13.25;93.79;102255.25;5013324;28;20030;-73
2021/08/28 04:41:42;;;;;;;27.20;6.18;;;;;;;13.21;94.25;102251.97;4995423;28;20065;-72
2021/08/28 04:44:07;;;;;;;24.15;6.20;;;;;;;13.18;94.34;102255.75;5013582;28;20108;-73
2021/08/28 04:46:33;;;;;;;25.20;6.38;;;;;;;13.15;94.57;102253.34;5012628;28;20029;-73
2021/08/28 04:48:58;;;;;;;27.58;6.10;;;;;;;13.11;94.33;102259.03;5013390;28;20037;-73
2021/08/28 04:51:24;;;;;;;18.33;5.95;;;;;;;13.08;94.58;102260.13;5013423;28;20068;-73
2021/08/28 04:53:49;;;;;;;20.15;6.13;;;;;;;13.04;94.61;102256.81;5012360;28;20042;-73
2021/08/28 04:56:14;;;;;;;24.05;6.25;;;;;;;13.01;94.74;102265.09;5013358;28;20030;-73
2021/08/28 04:58:40;;;;;;;24.83;6.07;;;;;;;12.99;94.93;102255.50;5012148;28;20129;-73
2021/08/28 05:01:05;;;;;;;25.02;6.40;;;;;;;12.98;95.09;102262.66;5013265;28;20034;-73
2021/08/28 05:03:30;;;;;;;19.52;6.22;;;;;;;12.99;95.10;102266.19;5012736;28;20030;-74
2021/08/28 05:05:56;;;;;;;34.00;6.05;;;;;;;12.98;95.21;102273.34;5012871;28;20129;-73
2021/08/28 05:08:21;;;;;;;24.08;6.05;;;;;;;12.98;95.02;102276.00;4995510;28;20029;-73
2021/08/28 05:10:47;;;;;;;19.77;6.20;;;;;;;13.03;95.34;102281.00;5012177;28;20064;-73
2021/08/28 05:13:13;;;;;;;22.10;5.90;;;;;;;13.08;95.19;102278.84;5012983;28;20087;-73
2021/08/28 05:15:38;;;;;;;20.50;5.57;;;;;;;13.15;95.20;102282.72;5012308;28;20034;-73
2021/08/28 05:18:04;;;;;;;15.93;5.95;;;;;;;13.21;94.88;102276.03;5012550;28;20116;-73
2021/08/28 05:20:30;;;;;;;15.10;4.80;;;;;;;13.28;94.35;102284.41;5012107;28;20053;-73
2021/08/28 05:22:56;;;;;;;15.77;4.70;;;;;;;13.31;93.88;102287.69;5011822;28;20050;-73
2021/08/28 05:25:21;;;;;;;13.93;4.60;;;;;;;13.34;93.58;102283.97;5012456;28;20463;-73
2021/08/28 05:27:47;;;;;;;15.38;5.28;;;;;;;13.33;93.32;102285.75;5011851;28;20030;-73
2021/08/28 05:30:12;;;;;;;19.55;4.65;;;;;;;13.33;92.86;102288.44;5012436;28;20125;-73
2021/08/28 05:32:38;;;;;;;16.52;4.78;;;;;;;13.30;92.78;102282.47;5012035;28;20048;-73
2021/08/28 05:35:04;;;;;;;15.43;5.05;;;;;;;13.28;93.26;102279.06;5012667;28;20409;-73
2021/08/28 05:37:29;;;;;;;20.67;6.03;;;;;;;13.28;93.18;102284.41;5012760;28;20482;-72
2021/08/28 05:39:54;;;;;;;15.43;4.90;;;;;;;13.26;93.03;102281.88;4994510;28;20038;-74
2021/08/28 05:42:20;;;;;;;12.05;5.13;;;;;;;13.25;93.47;102282.84;5012988;28;20032;-73
2021/08/28 05:44:45;;;;;;;18.45;5.80;;;;;;;13.23;93.53;102277.59;5012332;28;20084;-73
2021/08/28 05:47:10;;;;;;;18.50;5.22;;;;;;;13.24;93.32;102281.13;5012470;28;20041;-73
2021/08/28 05:49:36;;;;;;;17.02;4.78;;;;;;;13.25;93.48;102284.66;5011992;28;20036;-73
2021/08/28 05:52:02;;;;;;;20.90;5.72;;;;;;;13.23;93.79;102288.31;5012492;28;20065;-73
2021/08/28 05:54:27;;;;;;;21.55;5.72;;;;;;;13.25;93.56;102287.34;5012607;28;20030;-73
2021/08/28 05:56:52;;;;;;;19.42;5.10;;;;;;;13.26;94.24;102289.88;5011905;28;20382;-74
2021/08/28 05:59:18;;;;;;;15.85;5.50;;;;;;;13.29;94.19;102296.81;5016629;28;20092;-73
2021/08/28 06:01:43;;;;;;;24.77;5.38;;;;;;;13.32;94.54;102296.56;5015676;28;20520;-73
2021/08/28 06:04:08;;;;;;;24.75;5.70;;;;;;;13.39;94.25;102300.47;5016286;28;20076;-73
2021/08/28 06:06:34;;;;;;;20.50;5.18;;;;;;;13.48;94.37;102299.75;5016472;28;20030;-72
2021/08/28 06:08:59;;;;;;;19.00;5.80;;;;;;;13.61;94.22;102301.44;5016015;28;20034;-73
2021/08/28 06:11:25;;;;;;;14.73;5.43;;;;;;;13.71;94.01;102297.06;4998799;28;20114;-72
2021/08/28 06:13:53;;;;;;;13.55;4.88;;;;;;;13.82;93.51;102302.38;5015758;28;20034;-73
2021/08/28 06:16:19;;;;;;;12.40;4.68;;;;;;;13.95;93.24;102296.88;5016254;28;20145;-72
2021/08/28 06:18:44;;;;;;;17.42;4.80;;;;;;;14.10;92.46;102308.16;5015664;28;20045;-73
2021/08/28 06:21:10;;;;;;;20.05;5.32;;;;;;;14.23;91.43;102302.66;5015868;28;20026;-72
2021/08/28 06:23:35;;;;;;;23.60;4.63;;;;;;;14.39;90.63;102302.19;5016040;28;20161;-72
2021/08/28 06:26:01;;;;;;;17.05;4.50;;;;;;;14.55;90.16;102305.28;5015487;28;20034;-73
2021/08/28 06:28:26;;;;;;;19.75;6.90;;;;;;;14.69;89.50;102306.84;5015961;28;20128;-72
2021/08/28 06:30:51;;;;;;;20.83;5.32;;;;;;;14.83;89.25;102305.66;5015358;28;20455;-73
2021/08/28 06:33:17;;;;;;;17.92;5.00;;;;;;;14.97;88.34;102310.69;5015859;28;20041;-72
2021/08/28 06:35:42;;;;;;;16.75;5.00;;;;;;;15.12;87.15;102308.50;5015046;28;20061;-73
2021/08/28 06:38:08;;;;;;;17.85;4.68;;;;;;;15.31;87.12;102301.53;5016174;28;20033;-72
2021/08/28 06:40:33;;;;;;;15.82;4.50;;;;;;;15.46;86.58;102307.38;5015830;28;20026;-72
2021/08/28 06:42:58;;;;;;;14.50;4.53;;;;;;;15.59;86.60;102304.47;5015155;28;20038;-73
2021/08/28 06:45:24;;;;;;;13.10;4.45;;;;;;;15.73;85.20;102313.97;4998341;28;20081;-72
2021/08/28 06:47:49;;;;;;;15.23;4.63;;;;;;;15.87;85.10;102305.56;5015013;28;20037;-73
2021/08/28 06:50:14;;;;;;;17.23;4.65;;;;;;;15.98;85.27;102308.09;5015705;28;20060;-72
2021/08/28 06:52:40;;;;;;;20.10;4.63;;;;;;;16.06;84.52;102306.56;5015446;28;20044;-72
2021/08/28 06:55:06;;;;;;;15.40;4.65;;;;;;;16.10;83.86;102310.69;5014900;28;20390;-72
2021/08/28 06:57:32;;;;;;;17.15;4.55;;;;;;;16.12;83.80;102312.25;5015370;28;20054;-71
2021/08/28 06:59:58;;;;;;;16.10;4.63;;;;;;;16.12;83.62;102303.31;5014828;28;20030;-72
2021/08/28 07:02:24;;;;;;;18.08;4.78;;;;;;;16.15;83.17;102306.59;5015449;28;20060;-72
2021/08/28 07:04:49;;;;;;;14.30;4.20;;;;;;;16.25;83.01;102308.44;5014762;28;20069;-73
2021/08/28 07:07:15;;;;;;;11.55;3.55;;;;;;;16.36;82.44;102308.28;5015003;28;20148;-72
2021/08/28 07:09:40;;;;;;;20.15;4.32;;;;;;;16.47;81.74;102302.75;4997324;28;20125;-72
2021/08/28 07:12:06;;;;;;;12.40;4.05;;;;;;;16.57;81.40;102310.84;5014284;28;20038;-72
2021/08/28 07:14:31;;;;;;;12.27;4.10;;;;;;;16.73;80.86;102302.16;5014877;28;20513;-71
2021/08/28 07:16:57;;;;;;;21.13;5.50;;;;;;;16.90;81.34;102308.69;5014601;28;20030;-73
2021/08/28 07:19:22;;;;;;;16.25;5.40;;;;;;;17.00;78.84;102311.34;5014882;28;20117;-72
2021/08/28 07:21:48;;;;;;;11.32;3.85;;;;;;;17.10;78.41;102307.63;5015070;28;20502;-71
2021/08/28 07:24:13;;;;;;;14.50;3.90;;;;;;;17.16;79.30;102311.56;5014598;28;20069;-70
2021/08/28 07:26:39;;;;;;;13.07;4.20;;;;;;;17.20;77.14;102309.44;5014968;28;20120;-71
2021/08/28 07:29:04;;;;;;;16.88;3.90;;;;;;;17.22;78.49;102307.44;5013823;28;20037;-71
2021/08/28 07:31:30;;;;;;;14.23;4.25;;;;;;;17.24;78.79;102314.38;5014655;28;20079;-71
2021/08/28 07:33:56;;;;;;;13.15;3.70;;;;;;;17.23;78.46;102311.84;5013885;28;20514;-71
2021/08/28 07:36:21;;;;;;;10.20;3.97;;;;;;;17.21;79.13;102312.00;5014697;28;20061;-71
2021/08/28 07:38:47;;;;;;;11.77;4.00;;;;;;;17.18;77.27;102312.28;5014416;28;20117;-71
2021/08/28 07:41:12;;;;;;;16.35;4.10;;;;;;;17.14;78.77;102310.88;5013951;28;20410;-71
2021/08/28 07:43:38;;;;;;;12.43;3.85;;;;;;;17.13;78.60;102313.72;4997086;28;20529;-71
2021/08/28 07:46:03;;;;;;;12.18;3.67;;;;;;;17.10;78.01;102314.84;5013996;28;20359;-71
2021/08/28 07:48:29;;;;;;;17.70;4.10;;;;;;;17.09;78.53;102314.00;5014628;28;20466;-71
2021/08/28 07:50:54;;;;;;;11.63;4.40;;;;;;;17.15;77.71;102314.41;4996052;28;20037;-72
2021/08/28 07:53:20;;;;;;;12.02;3.55;;;;;;;17.28;76.85;102320.31;5014069;28;20049;-71
2021/08/28 07:55:45;;;;;;;13.85;3.88;;;;;;;17.52;75.99;102318.94;5014415;28;20108;-71
2021/08/28 07:58:10;;;;;;;18.65;3.90;;;;;;;17.71;75.94;102316.13;5013383;28;20058;-71
2021/08/28 08:00:36;;;;;;;13.93;4.03;;;;;;;17.79;74.35;102321.63;5014322;28;20398;-71
2021/08/28 08:03:01;;;;;;;14.52;4.15;;;;;;;17.90;73.98;102320.59;5013192;28;20478;-72
2021/08/28 08:05:27;;;;;;;13.05;3.72;;;;;;;17.98;73.04;102326.06;5014035;28;20061;-71
2021/08/28 08:07:53;;;;;;;13.65;3.88;;;;;;;17.88;72.29;102324.41;5014179;28;20033;-72
2021/08/28 08:10:18;;;;;;;9.30;3.08;;;;;;;17.87;73.74;102328.94;5013500;28;20034;-72
2021/08/28 08:12:44;;;;;;;11.75;3.90;;;;;;;17.84;73.06;102331.06;5013840;28;20030;-71
2021/08/28 08:15:10;;;;;;;12.88;3.78;;;;;;;17.80;74.77;102330.53;5013325;28;20232;-71
2021/08/28 08:17:35;;;;;;;9.82;3.45;;;;;;;17.66;72.71;102331.91;5014017;28;20390;-72
2021/08/28 08:20:01;;;;;;;11.70;3.70;;;;;;;17.85;72.50;102335.47;5012478;28;20038;-72
2021/08/28 08:22:26;;;;;;;10.88;3.65;;;;;;;18.11;71.70;102338.31;5013787;28;20033;-72
2021/08/28 08:24:52;;;;;;;8.73;3.33;;;;;;;18.50;70.56;102338.84;5013549;28;20522;-72
2021/08/28 08:27:17;;;;;;;11.88;3.53;;;;;;;18.56;69.26;102339.25;5013131;28;20653;-72
2021/08/28 08:29:43;;;;;;;16.88;4.50;;;;;;;18.39;69.58;102335.53;5013665;28;20522;-71
2021/08/28 08:32:08;;;;;;;10.65;3.83;;;;;;;18.11;70.98;102341.03;5012857;28;20041;-72
2021/08/28 08:34:34;;;;;;;7.78;3.05;;;;;;;17.80;72.26;102344.84;5013673;28;20112;-72
2021/08/28 08:36:59;;;;;;;10.32;3.60;;;;;;;17.48;73.00;102344.44;5013089;28;20029;-72
2021/08/28 08:39:25;;;;;;;8.80;3.35;;;;;;;17.46;74.30;102344.59;5013499;28;20042;-71
2021/08/28 08:41:51;;;;;;;11.77;3.90;;;;;;;17.48;73.02;102341.75;5013608;28;20034;-71
2021/08/28 08:44:17;;;;;;;9.20;3.53;;;;;;;17.62;73.09;102347.47;5012943;28;20482;-72
2021/08/28 08:46:44;;;;;;;10.10;3.63;;;;;;;17.94;71.41;102343.53;4995446;28;20030;-72
2021/08/28 08:49:11;;;;;;;8.40;3.50;;;;;;;18.41;71.77;102342.47;5012710;28;20033;-71
2021/08/28 08:51:37;;;;;;;9.98;3.63;;;;;;;19.13;66.88;102333.44;5013300;28;20100;-71
2021/08/28 08:54:04;;;;;;;8.35;3.33;;;;;;;19.73;65.12;102333.41;5013083;28;20458;-72
2021/08/28 08:56:31;;;;;;;7.78;3.00;;;;;;;20.22;61.69;102345.38;4995365;28;20037;-72
2021/08/28 08:58:57;;;;;;;7.82;3.28;;;;;;;21.13;62.00;102336.22;5013279;28;20029;-72
2021/08/28 09:01:23;;;;;;;10.23;3.13;;;;;;;22.24;59.19;102338.94;5012574;28;20034;-73
2021/08/28 09:03:48;;;;;;;7.53;2.95;;;;;;;23.63;51.18;102329.63;5013047;28;20056;-73
2021/08/28 09:06:14;;;;;;;10.02;3.67;;;;;;;24.43;48.88;102335.97;5012560;28;20375;-73
2021/08/28 09:08:39;;;;;;;8.98;3.38;;;;;;;24.77;47.77;102339.84;5011976;28;20168;-74
2021/08/28 09:11:25;;;;;;;8.60;3.22;;;;;;;24.75;48.21;102341.91;5012565;28;20065;-74
2021/08/28 09:14:11;;;;;;;9.75;3.40;;;;;;;24.72;49.01;102345.88;4995578;28;20034;-72
2021/08/28 09:16:36;;;;;;;8.18;3.20;;;;;;;24.45;49.02;102348.34;5012991;28;20065;-72
2021/08/28 09:19:02;;;;;;;12.15;3.30;;;;;;;23.39;51.15;102342.50;5012897;28;20034;-72
2021/08/28 09:21:33;;;;;;;9.48;3.10;;;;;;;22.46;53.65;102350.84;5012299;28;20064;-72
2021/08/28 09:24:00;;;;;;;11.75;3.80;;;;;;;22.25;55.54;102337.09;5012953;28;20464;-72
2021/08/28 09:26:33;;;;;;;8.05;3.83;;;;;;;22.98;53.76;102340.22;5012296;28;20203;-73
2021/08/28 09:28:58;;;;;;;13.02;5.22;;;;;;;23.18;52.12;102341.34;5012676;28;20037;-73
2021/08/28 09:31:47;;;;;;;14.50;3.55;;;;;;;23.32;52.43;102345.13;5012069;28;20030;-73
2021/08/28 09:34:13;;;;;;;8.43;3.30;;;;;;;23.39;51.64;102345.19;5012040;28;20028;-72
2021/08/28 09:36:39;;;;;;;8.52;3.65;;;;;;;23.20;54.46;102342.03;5012469;28;20044;-73
2021/08/28 09:39:04;;;;;;;8.88;3.53;;;;;;;22.65;54.07;102343.25;5012338;28;20026;-73
2021/08/28 09:41:31;;;;;;;7.72;3.20;;;;;;;23.52;50.98;102345.38;5012068;28;20026;-75
2021/08/28 09:44:07;;;;;;;8.23;3.22;;;;;;;25.54;45.85;102345.34;5012670;28;20030;-75
2021/08/28 09:46:33;;;;;;;8.02;3.30;;;;;;;25.50;44.25;102355.81;5012167;28;20153;-74
2021/08/28 09:49:00;;;;;;;7.97;3.30;;;;;;;24.60;46.12;102355.59;5012217;28;20108;-73
2021/08/28 09:51:25;;;;;;;9.48;3.38;;;;;;;23.37;49.64;102345.41;5011995;28;20033;-73
2021/08/28 09:53:59;;;;;;;8.43;3.47;;;;;;;22.61;53.83;102359.03;4994954;28;20128;-73
2021/08/28 09:56:27;;;;;;;7.47;3.47;;;;;;;22.57;54.04;102365.00;5011519;28;20367;-73
2021/08/28 09:58:53;;;;;;;7.00;3.47;;;;;;;22.88;51.52;102354.03;5012657;28;20377;-71
2021/08/28 10:01:21;;;;;;;9.50;3.70;;;;;;;23.07;50.38;102347.25;5011944;28;20124;-74
2021/08/28 10:04:00;;;;;;;8.23;3.30;;;;;;;22.39;53.07;102362.59;5012484;28;20064;-74
2021/08/28 10:06:26;;;;;;;9.23;3.20;;;;;;;21.58;53.28;102352.84;5011913;28;20041;-72
2021/08/28 10:08:52;;;;;;;7.97;3.63;;;;;;;21.31;55.39;102359.53;4994935;28;20034;-73
2021/08/28 10:11:20;;;;;;;6.80;3.15;;;;;;;23.22;51.17;102352.72;5011836;28;20037;-74
2021/08/28 10:13:50;;;;;;;7.25;3.25;;;;;;;25.48;46.10;102349.72;4995144;28;20057;-75
2021/08/28 10:16:16;;;;;;;10.27;3.65;;;;;;;26.83;45.04;102352.56;5011701;28;20489;-73
2021/08/28 10:18:46;;;;;;;6.15;3.25;;;;;;;26.93;46.13;102346.66;5012446;28;20030;-74
2021/08/28 10:21:12;;;;;;;8.48;3.15;;;;;;;26.05;44.14;102355.84;5012312;28;20470;-72
2021/08/28 10:23:39;;;;;;;7.43;3.17;;;;;;;24.17;46.45;102356.44;5011874;28;20045;-73
2021/08/28 10:26:09;;;;;;;7.15;3.35;;;;;;;22.67;49.50;102349.31;5012213;28;20034;-72
2021/08/28 10:28:37;;;;;;;7.60;2.95;;;;;;;21.54;52.40;102351.53;5011672;28;20793;-72
2021/08/28 10:31:04;;;;;;;7.97;3.25;;;;;;;21.91;53.72;102344.56;5012122;28;20524;-72
2021/08/28 10:33:29;;;;;;;9.38;3.65;;;;;;;23.44;50.17;102341.91;5011566;28;20034;-72
2021/08/28 10:35:55;;;;;;;10.52;3.50;;;;;;;25.02;46.52;102350.25;5011954;28;20036;-72
2021/08/28 10:38:21;;;;;;;8.85;3.58;;;;;;;26.47;44.57;102342.91;5011618;28;20026;-71
2021/08/28 10:40:53;;;;;;;8.05;3.40;;;;;;;26.74;42.82;102340.19;5011900;28;20045;-71
2021/08/28 10:43:18;;;;;;;7.50;3.42;;;;;;;26.18;44.65;102353.13;5012214;28;20042;-72
2021/08/28 10:45:47;;;;;;;9.18;3.25;;;;;;;24.45;46.61;102353.78;5015629;28;20033;-72
2021/08/28 10:48:14;;;;;;;8.93;4.15;;;;;;;23.22;50.04;102356.25;5015492;28;20034;-72
2021/08/28 10:50:41;;;;;;;8.95;4.88;;;;;;;23.03;50.73;102352.19;5014878;28;20109;-71
2021/08/28 10:53:08;;;;;;;8.77;4.03;;;;;;;24.60;46.30;102355.59;5015485;28;20060;-71
2021/08/28 10:55:38;;;;;;;6.65;3.13;;;;;;;25.27;43.54;102353.34;5014667;28;20036;-72
2021/08/28 10:58:13;;;;;;;6.38;3.05;;;;;;;24.42;46.24;102353.31;5015384;28;20052;-72
2021/08/28 11:00:47;;;;;;;5.75;2.95;;;;;;;22.93;49.77;102350.75;5014682;28;20046;-71
2021/08/28 11:03:31;;;;;;;8.65;3.30;;;;;;;21.82;51.91;102357.31;5015348;28;20050;-71
2021/08/28 11:06:15;;;;;;;8.63;3.60;;;;;;;21.28;54.87;102360.69;5014990;28;20393;-71
2021/08/28 11:08:47;;;;;;;7.47;3.25;;;;;;;22.22;53.68;102361.84;5014175;28;20433;-71
2021/08/28 11:11:27;;;;;;;5.07;2.72;;;;;;;23.87;47.73;102348.38;5015250;28;20029;-70
2021/08/28 11:13:58;;;;;;;11.23;2.92;;;;;;;24.49;44.69;102351.50;5015037;28;20068;-70
2021/08/28 11:16:39;;;;;;;8.68;3.47;;;;;;;25.61;42.09;102343.50;5014483;28;20030;-71
2021/08/28 11:19:04;;;;;;;6.70;3.10;;;;;;;25.66;43.68;102351.91;5015204;28;20034;-70